sensor_id;sensor_type;location;lat;lon;timestamp;temperature;humidity
4293;DHT22;2160;51.172;6.808;2022-09-13T04:01:48;21.40;99.90
4293;DHT22;2160;51.172;6.808;2022-09-13T04:04:15;21.50;99.90
4293;DHT22;2160;51.172;6.808;2022-09-13T04:06:42;21.60;99.90
4293;DHT22;2160;51.172;6.808;2022-09-13T04:09:09;21.60;99.90
4293;DHT22;2160;51.172;6.808;2022-09-13T04:11:36;21.60;99.90
4293;DHT22;2160;51.172;6.808;2022-09-13T04:14:05;21.60;99.90
4293;DHT22;2160;51.172;6.808;2022-09-13T04:16:32;21.60;99.90
4293;DHT22;2160;51.172;6.808;2022-09-13T04:19:00;21.50;99.90
4293;DHT22;2160;51.172;6.808;2022-09-13T04:21:27;21.50;99.90
4293;DHT22;2160;51.172;6.808;2022-09-13T04:23:54;21.50;99.90
4293;DHT22;2160;51.172;6.808;2022-09-13T04:26:20;21.50;99.90
4293;DHT22;2160;51.172;6.808;2022-09-13T04:28:47;21.50;99.90
4293;DHT22;2160;51.172;6.808;2022-09-13T04:31:14;21.60;99.90
4293;DHT22;2160;51.172;6.808;2022-09-13T04:33:41;21.70;99.90
4293;DHT22;2160;51.172;6.808;2022-09-13T04:36:09;21.60;99.90
4293;DHT22;2160;51.172;6.808;2022-09-13T04:38:36;21.50;99.90
4293;DHT22;2160;51.172;6.808;2022-09-13T04:41:03;21.40;99.90
4293;DHT22;2160;51.172;6.808;2022-09-13T04:43:30;21.40;99.90
4293;DHT22;2160;51.172;6.808;2022-09-13T04:45:59;21.40;99.90
4293;DHT22;2160;51.172;6.808;2022-09-13T04:48:26;21.40;99.90
4293;DHT22;2160;51.172;6.808;2022-09-13T04:51:00;21.40;99.90
4293;DHT22;2160;51.172;6.808;2022-09-13T04:53:28;21.40;99.90
4293;DHT22;2160;51.172;6.808;2022-09-13T04:55:59;21.40;99.90
4293;DHT22;2160;51.172;6.808;2022-09-13T04:58:26;21.40;99.90
4293;DHT22;2160;51.172;6.808;2022-09-13T05:00:53;21.50;99.90
4293;DHT22;2160;51.172;6.808;2022-09-13T05:03:21;21.40;99.90
4293;DHT22;2160;51.172;6.808;2022-09-13T05:05:48;21.40;99.90
4293;DHT22;2160;51.172;6.808;2022-09-13T05:08:15;21.30;99.90
4293;DHT22;2160;51.172;6.808;2022-09-13T05:10:45;21.30;99.90
4293;DHT22;2160;51.172;6.808;2022-09-13T05:13:12;21.20;99.90
4293;DHT22;2160;51.172;6.808;2022-09-13T05:15:39;21.20;99.90
4293;DHT22;2160;51.172;6.808;2022-09-13T05:18:06;21.30;99.90
4293;DHT22;2160;51.172;6.808;2022-09-13T05:20:33;21.30;99.90
4293;DHT22;2160;51.172;6.808;2022-09-13T05:23:00;21.40;99.90
4293;DHT22;2160;51.172;6.808;2022-09-13T05:25:27;21.30;99.90
4293;DHT22;2160;51.172;6.808;2022-09-13T05:27:55;21.30;99.90
4293;DHT22;2160;51.172;6.808;2022-09-13T05:30:22;21.20;99.90
4293;DHT22;2160;51.172;6.808;2022-09-13T05:32:49;21.30;99.90
4293;DHT22;2160;51.172;6.808;2022-09-13T05:35:16;21.30;99.90
4293;DHT22;2160;51.172;6.808;2022-09-13T05:37:43;21.30;99.90
4293;DHT22;2160;51.172;6.808;2022-09-13T05:40:10;21.30;99.90
4293;DHT22;2160;51.172;6.808;2022-09-13T05:42:37;21.30;99.90
4293;DHT22;2160;51.172;6.808;2022-09-13T05:45:07;21.30;99.90
4293;DHT22;2160;51.172;6.808;2022-09-13T05:47:34;21.30;99.90
4293;DHT22;2160;51.172;6.808;2022-09-13T05:50:01;21.30;99.90
4293;DHT22;2160;51.172;6.808;2022-09-13T05:52:28;21.20;99.90
4293;DHT22;2160;51.172;6.808;2022-09-13T05:54:54;21.20;99.90
4293;DHT22;2160;51.172;6.808;2022-09-13T05:57:22;21.30;99.90
4293;DHT22;2160;51.172;6.808;2022-09-13T05:59:49;21.30;99.90
4293;DHT22;2160;51.172;6.808;2022-09-13T06:02:17;21.40;99.90
4293;DHT22;2160;51.172;6.808;2022-09-13T06:04:44;21.50;99.90
4293;DHT22;2160;51.172;6.808;2022-09-13T06:07:11;21.60;99.90
4293;DHT22;2160;51.172;6.808;2022-09-13T06:09:44;21.50;99.90
4293;DHT22;2160;51.172;6.808;2022-09-13T06:12:11;21.50;99.90
4293;DHT22;2160;51.172;6.808;2022-09-13T06:14:38;21.40;99.90
4293;DHT22;2160;51.172;6.808;2022-09-13T06:17:05;21.40;99.90
4293;DHT22;2160;51.172;6.808;2022-09-13T06:19:33;21.40;99.90
4293;DHT22;2160;51.172;6.808;2022-09-13T06:22:00;21.40;99.90
4293;DHT22;2160;51.172;6.808;2022-09-13T06:24:27;21.40;99.90
4293;DHT22;2160;51.172;6.808;2022-09-13T06:26:54;21.40;99.90
4293;DHT22;2160;51.172;6.808;2022-09-13T06:29:20;21.30;99.90
4293;DHT22;2160;51.172;6.808;2022-09-13T06:31:47;21.40;99.90
4293;DHT22;2160;51.172;6.808;2022-09-13T06:34:14;21.40;99.90
4293;DHT22;2160;51.172;6.808;2022-09-13T06:36:43;21.60;99.90
4293;DHT22;2160;51.172;6.808;2022-09-13T06:39:10;21.70;99.90
4293;DHT22;2160;51.172;6.808;2022-09-13T06:41:37;21.70;99.90
4293;DHT22;2160;51.172;6.808;2022-09-13T06:44:04;21.70;99.90
4293;DHT22;2160;51.172;6.808;2022-09-13T06:46:33;21.70;99.90
4293;DHT22;2160;51.172;6.808;2022-09-13T06:49:03;21.80;99.90
4293;DHT22;2160;51.172;6.808;2022-09-13T06:51:31;21.80;99.90
4293;DHT22;2160;51.172;6.808;2022-09-13T06:54:00;21.80;99.90
4293;DHT22;2160;51.172;6.808;2022-09-13T06:56:29;21.80;99.90
4293;DHT22;2160;51.172;6.808;2022-09-13T06:58:58;21.90;99.90
4293;DHT22;2160;51.172;6.808;2022-09-13T07:01:27;21.90;99.90
4293;DHT22;2160;51.172;6.808;2022-09-13T07:03:58;21.90;99.90
4293;DHT22;2160;51.172;6.808;2022-09-13T07:06:28;22.00;99.90
4293;DHT22;2160;51.172;6.808;2022-09-13T07:09:02;22.00;99.90
4293;DHT22;2160;51.172;6.808;2022-09-13T07:11:34;22.00;99.90
4293;DHT22;2160;51.172;6.808;2022-09-13T07:14:01;22.00;99.90
4293;DHT22;2160;51.172;6.808;2022-09-13T07:16:30;22.00;99.90
4293;DHT22;2160;51.172;6.808;2022-09-13T07:18:59;22.10;99.90
4293;DHT22;2160;51.172;6.808;2022-09-13T07:21:27;22.10;99.90
4293;DHT22;2160;51.172;6.808;2022-09-13T07:23:55;22.10;99.90
4293;DHT22;2160;51.172;6.808;2022-09-13T07:26:24;22.10;99.90
4293;DHT22;2160;51.172;6.808;2022-09-13T07:28:53;22.10;99.90
4293;DHT22;2160;51.172;6.808;2022-09-13T07:31:22;22.20;99.90
4293;DHT22;2160;51.172;6.808;2022-09-13T07:34:00;22.20;99.90
4293;DHT22;2160;51.172;6.808;2022-09-13T07:36:29;22.30;99.90
4293;DHT22;2160;51.172;6.808;2022-09-13T07:38:57;22.20;99.90
4293;DHT22;2160;51.172;6.808;2022-09-13T07:41:27;22.30;99.90
4293;DHT22;2160;51.172;6.808;2022-09-13T07:43:55;22.30;99.90
4293;DHT22;2160;51.172;6.808;2022-09-13T07:46:24;22.40;99.90
4293;DHT22;2160;51.172;6.808;2022-09-13T07:48:52;22.40;99.90
4293;DHT22;2160;51.172;6.808;2022-09-13T07:51:21;22.50;99.90
4293;DHT22;2160;51.172;6.808;2022-09-13T07:53:49;22.60;99.90
4293;DHT22;2160;51.172;6.808;2022-09-13T07:56:18;22.50;99.90
4293;DHT22;2160;51.172;6.808;2022-09-13T07:58:49;22.50;99.90
4293;DHT22;2160;51.172;6.808;2022-09-13T08:01:17;22.60;99.90
4293;DHT22;2160;51.172;6.808;2022-09-13T08:03:50;22.60;99.90
4293;DHT22;2160;51.172;6.808;2022-09-13T08:06:17;22.60;99.90
4293;DHT22;2160;51.172;6.808;2022-09-13T08:08:44;22.70;99.90
4293;DHT22;2160;51.172;6.808;2022-09-13T08:11:16;22.80;99.90
4293;DHT22;2160;51.172;6.808;2022-09-13T08:13:44;22.80;99.90
4293;DHT22;2160;51.172;6.808;2022-09-13T08:16:13;22.80;99.90
4293;DHT22;2160;51.172;6.808;2022-09-13T08:18:43;22.90;99.90
4293;DHT22;2160;51.172;6.808;2022-09-13T08:21:11;23.00;99.90
4293;DHT22;2160;51.172;6.808;2022-09-13T08:23:38;22.90;99.90
4293;DHT22;2160;51.172;6.808;2022-09-13T08:26:05;22.90;99.90
4293;DHT22;2160;51.172;6.808;2022-09-13T08:28:33;23.00;99.90
4293;DHT22;2160;51.172;6.808;2022-09-13T08:31:05;23.20;99.90
4293;DHT22;2160;51.172;6.808;2022-09-13T08:33:34;23.20;99.90
4293;DHT22;2160;51.172;6.808;2022-09-13T08:36:01;23.10;99.90
4293;DHT22;2160;51.172;6.808;2022-09-13T08:38:29;23.10;99.90
4293;DHT22;2160;51.172;6.808;2022-09-13T08:40:58;22.90;99.90
4293;DHT22;2160;51.172;6.808;2022-09-13T08:43:32;22.80;99.90
4293;DHT22;2160;51.172;6.808;2022-09-13T08:46:05;23.00;99.90
4293;DHT22;2160;51.172;6.808;2022-09-13T08:48:41;23.30;99.90
4293;DHT22;2160;51.172;6.808;2022-09-13T08:51:27;23.50;99.90
4293;DHT22;2160;51.172;6.808;2022-09-13T08:53:57;23.70;99.90
4293;DHT22;2160;51.172;6.808;2022-09-13T08:56:31;23.60;99.90
4293;DHT22;2160;51.172;6.808;2022-09-13T08:59:25;23.50;99.90
4293;DHT22;2160;51.172;6.808;2022-09-13T09:02:03;23.50;99.90
4293;DHT22;2160;51.172;6.808;2022-09-13T09:04:41;23.60;99.90
4293;DHT22;2160;51.172;6.808;2022-09-13T09:07:13;23.60;99.90
4293;DHT22;2160;51.172;6.808;2022-09-13T09:09:45;23.90;99.90
4293;DHT22;2160;51.172;6.808;2022-09-13T09:12:23;24.10;99.90
4293;DHT22;2160;51.172;6.808;2022-09-13T09:14:58;24.20;99.90
4293;DHT22;2160;51.172;6.808;2022-09-13T09:17:29;24.20;99.90
4293;DHT22;2160;51.172;6.808;2022-09-13T09:20:06;24.10;99.90
4293;DHT22;2160;51.172;6.808;2022-09-13T09:22:34;24.20;99.90
4293;DHT22;2160;51.172;6.808;2022-09-13T09:25:02;24.20;99.90
4293;DHT22;2160;51.172;6.808;2022-09-13T09:27:30;24.30;99.90
4293;DHT22;2160;51.172;6.808;2022-09-13T09:29:59;24.60;99.90
4293;DHT22;2160;51.172;6.808;2022-09-13T09:32:46;24.50;99.90
4293;DHT22;2160;51.172;6.808;2022-09-13T09:35:25;24.70;99.90
4293;DHT22;2160;51.172;6.808;2022-09-13T09:40:51;25.00;99.90
4293;DHT22;2160;51.172;6.808;2022-09-13T09:43:23;24.80;99.90
4293;DHT22;2160;51.172;6.808;2022-09-13T09:45:53;24.80;99.90
4293;DHT22;2160;51.172;6.808;2022-09-13T09:48:26;25.10;99.90
4293;DHT22;2160;51.172;6.808;2022-09-13T09:50:57;25.20;99.90
4293;DHT22;2160;51.172;6.808;2022-09-13T09:53:27;25.40;99.90
4293;DHT22;2160;51.172;6.808;2022-09-13T09:56:00;25.40;99.90
4293;DHT22;2160;51.172;6.808;2022-09-13T09:58:39;25.40;99.90
4293;DHT22;2160;51.172;6.808;2022-09-13T10:01:16;25.50;99.90
4293;DHT22;2160;51.172;6.808;2022-09-13T10:03:50;25.50;99.90
4293;DHT22;2160;51.172;6.808;2022-09-13T10:06:21;25.60;99.90
4293;DHT22;2160;51.172;6.808;2022-09-13T10:08:56;25.60;99.90
4293;DHT22;2160;51.172;6.808;2022-09-13T10:11:41;25.80;99.90
4293;DHT22;2160;51.172;6.808;2022-09-13T10:14:29;26.00;99.90
4293;DHT22;2160;51.172;6.808;2022-09-13T10:17:16;26.00;99.90
4293;DHT22;2160;51.172;6.808;2022-09-13T10:19:54;25.90;99.90
4293;DHT22;2160;51.172;6.808;2022-09-13T10:22:24;26.10;99.90
4293;DHT22;2160;51.172;6.808;2022-09-13T10:24:51;26.10;99.90
4293;DHT22;2160;51.172;6.808;2022-09-13T10:27:23;26.20;99.90
4293;DHT22;2160;51.172;6.808;2022-09-13T10:29:52;26.30;99.90
4293;DHT22;2160;51.172;6.808;2022-09-13T10:32:24;26.40;99.90
4293;DHT22;2160;51.172;6.808;2022-09-13T10:34:52;26.70;99.90
4293;DHT22;2160;51.172;6.808;2022-09-13T10:37:23;26.80;99.90
4293;DHT22;2160;51.172;6.808;2022-09-13T10:40:00;26.70;99.90
4293;DHT22;2160;51.172;6.808;2022-09-13T10:42:28;26.50;99.90
4293;DHT22;2160;51.172;6.808;2022-09-13T10:44:58;26.70;99.90
4293;DHT22;2160;51.172;6.808;2022-09-13T10:47:28;26.90;99.90
4293;DHT22;2160;51.172;6.808;2022-09-13T10:50:10;27.10;99.90
4293;DHT22;2160;51.172;6.808;2022-09-13T10:52:43;27.20;99.90
4293;DHT22;2160;51.172;6.808;2022-09-13T10:55:24;27.30;99.90
4293;DHT22;2160;51.172;6.808;2022-09-13T10:57:52;27.60;99.90
4293;DHT22;2160;51.172;6.808;2022-09-13T11:00:21;27.80;99.90
4293;DHT22;2160;51.172;6.808;2022-09-13T11:03:03;27.70;99.90
4293;DHT22;2160;51.172;6.808;2022-09-13T11:05:39;27.50;99.90
4293;DHT22;2160;51.172;6.808;2022-09-13T11:11:14;27.50;99.90
4293;DHT22;2160;51.172;6.808;2022-09-13T11:13:55;27.50;99.90
4293;DHT22;2160;51.172;6.808;2022-09-13T11:16:35;27.70;99.90
4293;DHT22;2160;51.172;6.808;2022-09-13T11:19:44;28.00;99.90
4293;DHT22;2160;51.172;6.808;2022-09-13T11:22:21;28.00;99.90
4293;DHT22;2160;51.172;6.808;2022-09-13T11:25:01;28.00;99.90
4293;DHT22;2160;51.172;6.808;2022-09-13T11:27:37;28.10;99.90
4293;DHT22;2160;51.172;6.808;2022-09-13T11:30:13;28.00;99.50
4293;DHT22;2160;51.172;6.808;2022-09-13T11:33:03;28.00;99.90
4293;DHT22;2160;51.172;6.808;2022-09-13T11:35:44;28.10;98.90
4293;DHT22;2160;51.172;6.808;2022-09-13T11:38:24;28.20;99.00
4293;DHT22;2160;51.172;6.808;2022-09-13T11:41:00;28.30;99.90
4293;DHT22;2160;51.172;6.808;2022-09-13T11:43:42;28.40;99.50
4293;DHT22;2160;51.172;6.808;2022-09-13T11:46:22;28.50;98.80
4293;DHT22;2160;51.172;6.808;2022-09-13T11:49:20;28.40;99.00
4293;DHT22;2160;51.172;6.808;2022-09-13T11:51:56;28.60;98.60
4293;DHT22;2160;51.172;6.808;2022-09-13T11:54:36;28.90;98.60
4293;DHT22;2160;51.172;6.808;2022-09-13T11:57:11;29.00;97.80
4293;DHT22;2160;51.172;6.808;2022-09-13T11:59:45;28.90;97.90
4293;DHT22;2160;51.172;6.808;2022-09-13T12:02:19;28.60;97.20
4293;DHT22;2160;51.172;6.808;2022-09-13T12:04:52;28.30;97.10
4293;DHT22;2160;51.172;6.808;2022-09-13T12:07:28;28.20;97.20
4293;DHT22;2160;51.172;6.808;2022-09-13T12:09:59;28.40;97.40
4293;DHT22;2160;51.172;6.808;2022-09-13T12:12:32;28.50;97.60
4293;DHT22;2160;51.172;6.808;2022-09-13T12:15:04;28.50;97.90
4293;DHT22;2160;51.172;6.808;2022-09-13T12:17:36;28.40;97.70
4293;DHT22;2160;51.172;6.808;2022-09-13T12:20:10;28.10;97.80
4293;DHT22;2160;51.172;6.808;2022-09-13T12:22:39;28.30;98.70
4293;DHT22;2160;51.172;6.808;2022-09-13T12:25:16;28.50;98.10
4293;DHT22;2160;51.172;6.808;2022-09-13T12:27:50;28.70;97.40
4293;DHT22;2160;51.172;6.808;2022-09-13T12:30:21;28.70;96.40
4293;DHT22;2160;51.172;6.808;2022-09-13T12:32:49;28.80;96.30
4293;DHT22;2160;51.172;6.808;2022-09-13T12:35:23;29.10;96.00
4293;DHT22;2160;51.172;6.808;2022-09-13T12:38:22;29.00;95.80
4293;DHT22;2160;51.172;6.808;2022-09-13T12:41:03;29.20;95.40
4293;DHT22;2160;51.172;6.808;2022-09-13T12:43:51;29.50;95.10
4293;DHT22;2160;51.172;6.808;2022-09-13T12:49:36;29.10;94.60
4293;DHT22;2160;51.172;6.808;2022-09-13T12:52:25;28.90;94.50
4293;DHT22;2160;51.172;6.808;2022-09-13T12:55:31;29.20;94.40
4293;DHT22;2160;51.172;6.808;2022-09-13T12:58:22;29.30;95.10
4293;DHT22;2160;51.172;6.808;2022-09-13T13:01:05;29.30;94.40
4293;DHT22;2160;51.172;6.808;2022-09-13T13:03:45;29.10;94.10
4293;DHT22;2160;51.172;6.808;2022-09-13T13:06:25;29.10;93.70
4293;DHT22;2160;51.172;6.808;2022-09-13T13:08:56;29.10;93.80
4293;DHT22;2160;51.172;6.808;2022-09-13T13:11:25;29.30;94.30
4293;DHT22;2160;51.172;6.808;2022-09-13T13:13:55;29.30;94.40
4293;DHT22;2160;51.172;6.808;2022-09-13T13:16:28;29.40;93.70
4293;DHT22;2160;51.172;6.808;2022-09-13T13:18:57;29.50;92.50
4293;DHT22;2160;51.172;6.808;2022-09-13T13:21:30;29.60;94.10
4293;DHT22;2160;51.172;6.808;2022-09-13T13:27:32;29.60;93.50
4293;DHT22;2160;51.172;6.808;2022-09-13T13:33:28;30.20;93.30
4293;DHT22;2160;51.172;6.808;2022-09-13T13:36:20;30.30;93.20
4293;DHT22;2160;51.172;6.808;2022-09-13T13:38:48;30.20;91.70
4293;DHT22;2160;51.172;6.808;2022-09-13T13:41:50;30.00;92.30
4293;DHT22;2160;51.172;6.808;2022-09-13T13:48:11;29.60;92.30
4293;DHT22;2160;51.172;6.808;2022-09-13T13:51:16;29.70;92.20
4293;DHT22;2160;51.172;6.808;2022-09-13T13:53:56;29.80;92.40
4293;DHT22;2160;51.172;6.808;2022-09-13T13:56:45;29.90;92.50
4293;DHT22;2160;51.172;6.808;2022-09-13T13:59:18;30.10;92.30
4293;DHT22;2160;51.172;6.808;2022-09-13T14:01:50;30.00;90.90
4293;DHT22;2160;51.172;6.808;2022-09-13T14:07:55;30.10;88.90
4293;DHT22;2160;51.172;6.808;2022-09-13T14:10:25;30.20;90.70
4293;DHT22;2160;51.172;6.808;2022-09-13T14:13:18;30.00;91.00
4293;DHT22;2160;51.172;6.808;2022-09-13T14:15:54;29.80;90.00
4293;DHT22;2160;51.172;6.808;2022-09-13T14:18:37;29.60;90.00
4293;DHT22;2160;51.172;6.808;2022-09-13T14:21:21;29.80;91.00
4293;DHT22;2160;51.172;6.808;2022-09-13T14:24:07;29.80;91.20
4293;DHT22;2160;51.172;6.808;2022-09-13T14:26:34;29.80;91.10
4293;DHT22;2160;51.172;6.808;2022-09-13T14:29:05;29.90;91.70
4293;DHT22;2160;51.172;6.808;2022-09-13T14:31:32;29.70;90.50
4293;DHT22;2160;51.172;6.808;2022-09-13T14:33:59;29.80;91.20
4293;DHT22;2160;51.172;6.808;2022-09-13T14:36:26;29.90;90.90
4293;DHT22;2160;51.172;6.808;2022-09-13T14:38:57;30.00;91.00
4293;DHT22;2160;51.172;6.808;2022-09-13T14:41:30;29.90;91.20
4293;DHT22;2160;51.172;6.808;2022-09-13T14:44:13;29.70;90.20
4293;DHT22;2160;51.172;6.808;2022-09-13T14:46:42;29.50;91.00
4293;DHT22;2160;51.172;6.808;2022-09-13T14:49:20;29.60;91.70
4293;DHT22;2160;51.172;6.808;2022-09-13T14:51:51;29.60;91.90
4293;DHT22;2160;51.172;6.808;2022-09-13T14:54:27;29.70;91.90
4293;DHT22;2160;51.172;6.808;2022-09-13T14:56:58;29.70;91.90
4293;DHT22;2160;51.172;6.808;2022-09-13T14:59:29;29.50;91.90
4293;DHT22;2160;51.172;6.808;2022-09-13T15:01:57;29.60;92.00
4293;DHT22;2160;51.172;6.808;2022-09-13T15:04:30;29.30;90.90
4293;DHT22;2160;51.172;6.808;2022-09-13T15:07:08;29.20;91.40
4293;DHT22;2160;51.172;6.808;2022-09-13T15:09:37;29.30;92.10
4293;DHT22;2160;51.172;6.808;2022-09-13T15:14:44;29.40;91.30
4293;DHT22;2160;51.172;6.808;2022-09-13T15:17:12;29.40;92.20
4293;DHT22;2160;51.172;6.808;2022-09-13T15:19:41;29.60;92.00
4293;DHT22;2160;51.172;6.808;2022-09-13T15:22:14;29.70;91.80
4293;DHT22;2160;51.172;6.808;2022-09-13T15:24:47;29.80;91.20
4293;DHT22;2160;51.172;6.808;2022-09-13T15:27:21;29.80;91.60
4293;DHT22;2160;51.172;6.808;2022-09-13T15:29:50;29.80;90.70
4293;DHT22;2160;51.172;6.808;2022-09-13T15:32:21;29.80;91.50
4293;DHT22;2160;51.172;6.808;2022-09-13T15:34:49;29.80;91.50
4293;DHT22;2160;51.172;6.808;2022-09-13T15:37:16;29.80;91.90
4293;DHT22;2160;51.172;6.808;2022-09-13T15:39:48;29.70;91.90
4293;DHT22;2160;51.172;6.808;2022-09-13T15:42:16;29.50;91.80
4293;DHT22;2160;51.172;6.808;2022-09-13T15:44:43;29.50;91.00
4293;DHT22;2160;51.172;6.808;2022-09-13T15:47:15;29.40;91.90
4293;DHT22;2160;51.172;6.808;2022-09-13T15:49:47;29.30;91.60
4293;DHT22;2160;51.172;6.808;2022-09-13T15:52:14;29.20;92.50
4293;DHT22;2160;51.172;6.808;2022-09-13T15:54:43;29.00;92.30
4293;DHT22;2160;51.172;6.808;2022-09-13T15:57:16;28.90;93.10
4293;DHT22;2160;51.172;6.808;2022-09-13T15:59:44;29.00;93.80
4293;DHT22;2160;51.172;6.808;2022-09-13T16:02:18;28.80;93.40
4293;DHT22;2160;51.172;6.808;2022-09-13T16:04:45;28.80;93.60
4293;DHT22;2160;51.172;6.808;2022-09-13T16:07:13;28.60;93.40
4293;DHT22;2160;51.172;6.808;2022-09-13T16:09:41;28.80;94.30
4293;DHT22;2160;51.172;6.808;2022-09-13T16:12:08;28.80;94.60
4293;DHT22;2160;51.172;6.808;2022-09-13T18:25:24;27.10;99.90
4293;DHT22;2160;51.172;6.808;2022-09-13T18:28:54;26.90;99.90
4293;DHT22;2160;51.172;6.808;2022-09-13T19:21:29;25.70;99.90
4293;DHT22;2160;51.172;6.808;2022-09-13T20:09:01;25.40;99.90
4293;DHT22;2160;51.172;6.808;2022-09-13T20:11:33;25.40;99.90
4293;DHT22;2160;51.172;6.808;2022-09-13T20:14:24;25.50;99.90
4293;DHT22;2160;51.172;6.808;2022-09-13T20:17:32;25.40;99.90
4293;DHT22;2160;51.172;6.808;2022-09-13T20:20:16;25.40;99.90
4293;DHT22;2160;51.172;6.808;2022-09-13T20:26:35;25.30;99.90
4293;DHT22;2160;51.172;6.808;2022-09-13T20:29:33;25.20;99.90
4293;DHT22;2160;51.172;6.808;2022-09-13T20:32:10;25.20;99.90
4293;DHT22;2160;51.172;6.808;2022-09-13T20:34:38;25.20;99.90
4293;DHT22;2160;51.172;6.808;2022-09-13T20:40:55;25.00;99.90
4293;DHT22;2160;51.172;6.808;2022-09-13T20:43:49;25.00;99.90
4293;DHT22;2160;51.172;6.808;2022-09-13T20:46:48;25.00;99.90
4293;DHT22;2160;51.172;6.808;2022-09-13T20:49:45;25.00;99.90
4293;DHT22;2160;51.172;6.808;2022-09-13T20:52:18;24.90;99.90
4293;DHT22;2160;51.172;6.808;2022-09-13T20:55:17;24.90;99.90
4293;DHT22;2160;51.172;6.808;2022-09-13T20:58:12;24.90;99.90
4293;DHT22;2160;51.172;6.808;2022-09-13T21:01:08;24.80;99.90
4293;DHT22;2160;51.172;6.808;2022-09-13T21:03:42;24.80;99.90
4293;DHT22;2160;51.172;6.808;2022-09-13T21:06:30;24.80;99.90
4293;DHT22;2160;51.172;6.808;2022-09-13T21:09:54;24.80;99.90
4293;DHT22;2160;51.172;6.808;2022-09-13T21:13:22;24.70;99.90
4293;DHT22;2160;51.172;6.808;2022-09-13T21:16:18;24.50;99.90
4293;DHT22;2160;51.172;6.808;2022-09-13T21:18:50;24.50;99.90
4293;DHT22;2160;51.172;6.808;2022-09-13T21:21:28;24.40;99.90
4293;DHT22;2160;51.172;6.808;2022-09-13T21:24:12;24.40;99.90
4293;DHT22;2160;51.172;6.808;2022-09-13T21:26:48;24.30;99.90
4293;DHT22;2160;51.172;6.808;2022-09-13T21:29:19;24.30;99.90
4293;DHT22;2160;51.172;6.808;2022-09-13T21:31:50;24.20;99.90
4293;DHT22;2160;51.172;6.808;2022-09-13T21:34:22;24.30;99.90
4293;DHT22;2160;51.172;6.808;2022-09-13T21:37:02;24.30;99.90
4293;DHT22;2160;51.172;6.808;2022-09-13T21:40:15;24.30;99.90
4293;DHT22;2160;51.172;6.808;2022-09-13T21:42:57;24.10;99.90
4293;DHT22;2160;51.172;6.808;2022-09-13T21:45:24;24.10;99.90
4293;DHT22;2160;51.172;6.808;2022-09-13T21:47:54;24.10;99.90
4293;DHT22;2160;51.172;6.808;2022-09-13T21:50:20;24.10;99.90
4293;DHT22;2160;51.172;6.808;2022-09-13T21:52:48;24.10;99.90
4293;DHT22;2160;51.172;6.808;2022-09-13T22:17:12;23.90;99.90
4293;DHT22;2160;51.172;6.808;2022-09-13T22:19:39;23.80;99.90
4293;DHT22;2160;51.172;6.808;2022-09-13T22:22:06;23.80;99.90
4293;DHT22;2160;51.172;6.808;2022-09-13T22:24:33;23.90;99.90
4293;DHT22;2160;51.172;6.808;2022-09-13T22:27:01;23.90;99.90
4293;DHT22;2160;51.172;6.808;2022-09-13T22:29:28;23.90;99.90
4293;DHT22;2160;51.172;6.808;2022-09-13T22:31:55;23.90;99.90
4293;DHT22;2160;51.172;6.808;2022-09-13T22:34:24;23.90;99.90
4293;DHT22;2160;51.172;6.808;2022-09-13T22:36:55;23.80;99.90
4293;DHT22;2160;51.172;6.808;2022-09-13T22:39:22;23.70;99.90
4293;DHT22;2160;51.172;6.808;2022-09-13T22:41:49;23.30;99.90
4293;DHT22;2160;51.172;6.808;2022-09-13T22:44:16;23.00;99.90
4293;DHT22;2160;51.172;6.808;2022-09-13T22:46:44;22.80;99.90
4293;DHT22;2160;51.172;6.808;2022-09-13T22:49:13;22.80;99.90
4293;DHT22;2160;51.172;6.808;2022-09-13T22:51:41;22.90;99.90
4293;DHT22;2160;51.172;6.808;2022-09-13T22:54:10;23.10;99.90
4293;DHT22;2160;51.172;6.808;2022-09-13T22:56:37;23.20;99.90
4293;DHT22;2160;51.172;6.808;2022-09-13T22:59:06;23.30;99.90
